createdAt,value
2019-03-09T00:01:31.327Z,0.20
2019-03-09T00:04:02.094Z,1.67
2019-03-09T00:06:32.602Z,1.50
2019-03-09T00:09:03.190Z,1.27
2019-03-09T00:11:33.713Z,1.43
2019-03-09T00:14:04.201Z,1.13
2019-03-09T00:16:34.660Z,2.23
2019-03-09T00:19:05.320Z,0.50
2019-03-09T00:21:35.776Z,0.60
2019-03-09T00:24:19.613Z,0.60
2019-03-09T00:26:51.712Z,0.43
2019-03-09T00:29:32.621Z,1.97
2019-03-09T00:32:07.229Z,0.80
2019-03-09T00:34:37.774Z,1.03
2019-03-09T00:37:08.109Z,5.70
2019-03-09T00:39:38.883Z,2.23
2019-03-09T00:42:09.188Z,2.03
2019-03-09T00:44:39.453Z,4.20
2019-03-09T00:47:10.050Z,3.13
2019-03-09T00:49:40.393Z,1.80
2019-03-09T00:52:10.758Z,1.70
2019-03-09T00:54:41.048Z,1.37
2019-03-09T00:57:11.510Z,0.50
2019-03-09T00:59:41.853Z,2.00
2019-03-09T01:02:12.417Z,1.50
2019-03-09T01:04:42.868Z,0.30
2019-03-09T01:07:13.237Z,0.60
2019-03-09T01:09:43.524Z,0.20
2019-03-09T01:12:13.886Z,1.23
2019-03-09T01:14:44.380Z,0.50
2019-03-09T01:17:14.679Z,0.80
2019-03-09T01:19:45.040Z,0.83
2019-03-09T01:22:15.318Z,1.33
2019-03-09T01:24:45.802Z,2.10
2019-03-09T01:27:16.237Z,0.50
2019-03-09T01:29:46.770Z,0.70
2019-03-09T01:32:17.036Z,0.80
2019-03-09T01:34:47.258Z,0.97
2019-03-09T01:37:17.607Z,1.20
2019-03-09T01:39:47.969Z,1.23
2019-03-09T01:42:18.401Z,1.00
2019-03-09T01:44:48.761Z,1.27
2019-03-09T01:47:19.510Z,0.67
2019-03-09T01:49:49.800Z,1.03
2019-03-09T01:52:19.997Z,0.70
2019-03-09T01:54:50.361Z,0.50
2019-03-09T01:57:20.852Z,0.43
2019-03-09T01:59:51.145Z,0.90
2019-03-09T02:02:21.700Z,1.13
2019-03-09T02:04:51.973Z,1.03
2019-03-09T02:07:22.417Z,0.80
2019-03-09T02:09:52.826Z,1.00
2019-03-09T02:12:23.177Z,0.53
2019-03-09T02:14:53.748Z,1.90
2019-03-09T02:17:24.282Z,1.73
2019-03-09T02:19:54.626Z,1.50
2019-03-09T02:22:24.946Z,0.50
2019-03-09T02:24:55.161Z,1.40
2019-03-09T02:27:25.545Z,0.73
2019-03-09T02:29:55.749Z,1.27
2019-03-09T02:32:26.032Z,0.87
2019-03-09T02:34:56.332Z,0.77
2019-03-09T02:37:26.609Z,0.30
2019-03-09T02:39:58.541Z,0.63
2019-03-09T02:42:29.329Z,0.60
2019-03-09T02:44:59.546Z,1.00
2019-03-09T02:47:29.900Z,0.97
2019-03-09T02:50:00.437Z,0.90
2019-03-09T02:52:30.675Z,1.03
2019-03-09T02:55:00.966Z,1.20
2019-03-09T02:57:31.269Z,0.87
2019-03-09T03:00:01.882Z,2.00
2019-03-09T03:02:36.478Z,1.43
2019-03-09T03:05:07.311Z,1.77
2019-03-09T03:07:37.715Z,0.90
2019-03-09T03:10:09.181Z,2.33
2019-03-09T03:12:39.625Z,2.17
2019-03-09T03:15:30.842Z,0.40
2019-03-09T03:18:01.335Z,0.40
2019-03-09T03:20:31.771Z,0.73
2019-03-09T03:23:02.353Z,1.13
2019-03-09T03:25:32.739Z,0.87
2019-03-09T03:28:02.952Z,0.90
2019-03-09T03:30:33.320Z,0.63
2019-03-09T03:33:03.688Z,0.20
2019-03-09T03:35:34.053Z,1.33
2019-03-09T03:38:04.345Z,0.90
2019-03-09T03:40:34.698Z,0.57
2019-03-09T03:43:05.217Z,0.57
2019-03-09T03:45:35.431Z,0.30
2019-03-09T03:48:05.803Z,2.13
2019-03-09T03:50:36.225Z,0.97
2019-03-09T03:53:06.514Z,0.97
2019-03-09T03:55:36.926Z,0.30
2019-03-09T03:58:07.293Z,0.20
2019-03-09T04:00:37.713Z,1.57
2019-03-09T04:03:08.339Z,1.43
2019-03-09T04:05:39.149Z,0.93
2019-03-09T04:08:09.513Z,0.23
2019-03-09T04:10:39.964Z,0.50
2019-03-09T04:13:10.323Z,0.37
2019-03-09T04:15:40.669Z,1.43
2019-03-09T04:18:10.990Z,0.30
2019-03-09T04:20:41.401Z,1.53
2019-03-09T04:23:11.706Z,0.60
2019-03-09T04:25:42.049Z,1.60
2019-03-09T04:28:12.512Z,3.37
2019-03-09T04:30:42.931Z,0.37
2019-03-09T04:33:13.292Z,0.43
2019-03-09T04:35:43.515Z,2.17
2019-03-09T04:38:13.919Z,0.97
2019-03-09T04:40:44.244Z,0.90
2019-03-09T04:43:14.556Z,0.30
2019-03-09T04:45:44.887Z,2.40
2019-03-09T04:48:15.337Z,0.20
2019-03-09T04:50:45.705Z,2.43
2019-03-09T04:53:16.265Z,1.70
2019-03-09T04:55:46.500Z,0.57
2019-03-09T04:58:17.057Z,1.50
2019-03-09T05:00:47.458Z,1.30
2019-03-09T05:03:17.859Z,0.40
2019-03-09T05:05:48.169Z,2.10
2019-03-09T05:08:21.754Z,2.00
2019-03-09T05:10:58.228Z,1.03
2019-03-09T05:13:34.035Z,1.40
2019-03-09T05:16:04.334Z,0.50
2019-03-09T05:18:35.212Z,2.40
2019-03-09T05:21:05.622Z,1.10
2019-03-09T05:23:35.969Z,0.50
2019-03-09T05:26:06.290Z,0.20
2019-03-09T05:28:36.605Z,2.37
2019-03-09T05:31:07.002Z,1.30
2019-03-09T05:33:37.304Z,0.40
2019-03-09T05:36:07.647Z,0.50
2019-03-09T05:38:37.969Z,1.73
2019-03-09T05:41:08.460Z,1.00
2019-03-09T05:43:38.798Z,0.30
2019-03-09T05:46:09.160Z,0.93
2019-03-09T05:48:39.562Z,1.80
2019-03-09T05:51:09.863Z,0.80
2019-03-09T05:53:40.267Z,0.43
2019-03-09T05:56:10.907Z,2.40
2019-03-09T05:58:41.453Z,0.67
2019-03-09T06:01:12.060Z,0.97
2019-03-09T06:03:42.426Z,1.93
2019-03-09T06:06:12.796Z,0.50
2019-03-09T06:08:43.371Z,0.80
2019-03-09T06:11:13.941Z,1.60
2019-03-09T06:13:44.387Z,1.10
2019-03-09T06:16:14.929Z,3.50
2019-03-09T06:18:45.595Z,2.30
2019-03-09T06:21:16.100Z,2.33
2019-03-09T06:23:46.445Z,2.07
2019-03-09T06:26:16.757Z,1.57
2019-03-09T06:28:47.048Z,1.40
2019-03-09T06:31:17.441Z,4.77
2019-03-09T06:33:47.865Z,1.90
2019-03-09T06:36:27.001Z,1.20
2019-03-09T06:38:59.963Z,1.40
2019-03-09T06:41:44.882Z,1.93
2019-03-09T06:44:15.322Z,3.20
2019-03-09T06:46:45.875Z,4.10
2019-03-09T06:49:16.385Z,3.03
2019-03-09T06:51:46.921Z,3.57
2019-03-09T06:54:17.546Z,2.63
2019-03-09T06:56:47.952Z,4.20
2019-03-09T06:59:18.314Z,5.53
2019-03-09T07:01:48.781Z,1.97
2019-03-09T07:04:19.267Z,1.30
2019-03-09T07:06:49.772Z,2.83
2019-03-09T07:09:20.224Z,3.30
2019-03-09T07:11:50.545Z,1.10
2019-03-09T07:14:56.098Z,1.23
2019-03-09T07:17:26.420Z,1.33
2019-03-09T07:19:56.876Z,2.90
2019-03-09T07:22:27.404Z,6.60
2019-03-09T07:24:57.901Z,3.73
2019-03-09T07:27:47.519Z,7.73
2019-03-09T07:30:18.146Z,3.70
2019-03-09T07:32:48.773Z,5.43
2019-03-09T07:35:19.244Z,3.17
2019-03-09T07:37:49.774Z,3.93
2019-03-09T07:40:20.341Z,8.03
2019-03-09T07:42:50.813Z,8.17
2019-03-09T07:45:21.287Z,6.07
2019-03-09T07:47:51.915Z,2.67
2019-03-09T07:50:22.748Z,5.50
2019-03-09T07:52:53.373Z,4.43
2019-03-09T07:55:23.738Z,4.03
2019-03-09T07:58:01.915Z,6.00
2019-03-09T08:00:32.563Z,4.17
2019-03-09T08:03:02.985Z,5.43
2019-03-09T08:05:33.356Z,5.07
2019-03-09T08:08:03.833Z,7.33
2019-03-09T08:10:34.287Z,3.37
2019-03-09T08:13:04.832Z,3.13
2019-03-09T08:15:35.266Z,5.77
2019-03-09T08:18:05.990Z,5.30
2019-03-09T08:20:36.477Z,3.37
2019-03-09T08:23:06.966Z,2.93
2019-03-09T08:25:37.433Z,2.30
2019-03-09T08:28:07.796Z,7.03
2019-03-09T08:30:38.478Z,5.30
2019-03-09T08:33:09.174Z,4.40
2019-03-09T08:35:39.533Z,2.50
2019-03-09T08:38:10.001Z,6.10
2019-03-09T08:40:40.276Z,1.60
2019-03-09T08:43:10.697Z,2.43
2019-03-09T08:45:41.049Z,5.57
2019-03-09T08:48:11.812Z,3.83
2019-03-09T08:50:42.226Z,5.40
2019-03-09T08:53:12.679Z,4.13
2019-03-09T08:55:43.101Z,4.40
2019-03-09T08:58:13.294Z,3.20
2019-03-09T09:00:43.666Z,7.03
2019-03-09T09:03:13.948Z,4.93
2019-03-09T09:05:44.707Z,6.10
2019-03-09T09:08:15.277Z,3.17
2019-03-09T09:10:45.595Z,3.03
2019-03-09T09:13:15.882Z,2.63
2019-03-09T09:15:46.185Z,2.40
2019-03-09T09:18:16.562Z,4.43
2019-03-09T09:20:46.897Z,4.27
2019-03-09T09:23:17.165Z,2.83
2019-03-09T09:25:47.832Z,2.23
2019-03-09T09:28:18.355Z,4.23
2019-03-09T09:30:48.733Z,1.97
2019-03-09T09:33:19.184Z,2.33
2019-03-09T09:35:49.556Z,4.37
2019-03-09T09:38:19.840Z,1.60
2019-03-09T09:40:50.434Z,2.23
2019-03-09T09:43:21.377Z,3.13
2019-03-09T09:45:52.131Z,1.93
2019-03-09T09:48:22.692Z,2.07
2019-03-09T09:50:53.041Z,1.83
2019-03-09T09:53:23.589Z,2.87
2019-03-09T09:55:54.057Z,5.47
2019-03-09T09:58:24.449Z,1.77
2019-03-09T10:00:54.820Z,5.97
2019-03-09T10:03:25.208Z,2.60
2019-03-09T10:05:55.601Z,2.97
2019-03-09T10:08:26.071Z,1.97
2019-03-09T10:10:56.361Z,4.53
2019-03-09T10:13:26.857Z,1.20
2019-03-09T10:15:57.441Z,5.30
2019-03-09T10:18:28.071Z,2.83
2019-03-09T10:20:58.696Z,1.53
2019-03-09T10:23:29.187Z,2.30
2019-03-09T10:25:59.469Z,9.07
2019-03-09T10:28:30.062Z,2.97
2019-03-09T10:31:00.626Z,2.13
2019-03-09T10:33:31.104Z,7.57
2019-03-09T10:36:01.789Z,4.50
2019-03-09T10:38:32.408Z,3.17
2019-03-09T10:41:03.368Z,5.37
2019-03-09T10:43:33.825Z,5.60
2019-03-09T10:46:04.473Z,4.13
2019-03-09T10:48:35.129Z,2.20
2019-03-09T10:51:05.842Z,4.90
2019-03-09T10:53:36.500Z,2.17
2019-03-09T10:56:07.144Z,5.73
2019-03-09T10:58:37.775Z,5.77
2019-03-09T11:01:08.408Z,3.20
2019-03-09T11:03:38.804Z,7.90
2019-03-09T11:06:09.550Z,5.20
2019-03-09T11:08:40.017Z,4.27
2019-03-09T11:11:10.405Z,5.53
2019-03-09T11:13:51.220Z,4.90
2019-03-09T11:16:13.877Z,6.83
2019-03-09T11:18:44.416Z,5.80
2019-03-09T11:21:14.893Z,8.33
2019-03-09T11:23:45.713Z,9.47
2019-03-09T11:26:16.265Z,5.03
2019-03-09T11:28:46.939Z,6.53
2019-03-09T11:31:17.437Z,8.03
2019-03-09T11:33:47.996Z,7.40
2019-03-09T11:36:18.498Z,8.60
2019-03-09T11:38:49.158Z,6.30
2019-03-09T11:41:19.603Z,6.13
2019-03-09T11:43:49.992Z,10.50
2019-03-09T11:46:21.087Z,6.90
2019-03-09T11:48:51.730Z,7.30
2019-03-09T11:51:22.011Z,8.03
2019-03-09T11:53:52.602Z,5.47
2019-03-09T11:56:23.149Z,4.93
2019-03-09T11:58:53.805Z,7.97
2019-03-09T12:01:24.939Z,8.07
2019-03-09T12:03:55.230Z,7.07
2019-03-09T12:06:25.833Z,5.00
2019-03-09T12:08:56.304Z,7.20
2019-03-09T12:11:26.717Z,4.37
2019-03-09T12:13:58.529Z,6.03
2019-03-09T12:16:29.077Z,6.43
2019-03-09T12:18:59.629Z,5.20
2019-03-09T12:21:30.242Z,6.87
2019-03-09T12:24:00.989Z,6.13
2019-03-09T12:26:31.643Z,8.63
2019-03-09T12:29:02.278Z,6.40
2019-03-09T12:31:32.658Z,7.97
2019-03-09T12:34:03.057Z,13.50
2019-03-09T12:36:33.370Z,8.73
2019-03-09T12:39:05.453Z,8.53
2019-03-09T12:41:35.799Z,9.30
2019-03-09T12:44:06.434Z,10.37
2019-03-09T12:46:36.935Z,4.67
2019-03-09T12:49:08.980Z,7.23
2019-03-09T12:51:39.844Z,8.53
2019-03-09T12:54:10.323Z,15.17
2019-03-09T12:56:40.678Z,8.40
2019-03-09T12:59:11.103Z,7.70
2019-03-09T13:01:41.480Z,7.17
2019-03-09T13:04:12.115Z,9.93
2019-03-09T13:06:42.756Z,9.80
2019-03-09T13:09:13.170Z,7.07
2019-03-09T13:11:55.796Z,8.40
2019-03-09T13:14:26.432Z,7.70
2019-03-09T13:16:56.598Z,10.90
2019-03-09T13:19:27.308Z,5.87
2019-03-09T13:21:57.809Z,8.33
2019-03-09T13:24:28.382Z,7.03
2019-03-09T13:26:58.953Z,9.57
2019-03-09T13:29:29.540Z,9.07
2019-03-09T13:32:00.000Z,14.33
2019-03-09T13:34:30.565Z,10.43
2019-03-09T13:37:01.097Z,11.33
2019-03-09T13:39:31.611Z,15.43
2019-03-09T13:42:02.097Z,13.10
2019-03-09T13:44:32.709Z,13.60
2019-03-09T13:47:04.345Z,17.17
2019-03-09T13:49:35.031Z,13.10
2019-03-09T13:52:05.766Z,10.57
2019-03-09T13:54:36.397Z,10.47
2019-03-09T13:57:07.861Z,11.40
2019-03-09T13:59:38.365Z,23.03
2019-03-09T14:02:09.025Z,13.93
2019-03-09T14:04:39.526Z,14.87
2019-03-09T14:07:10.155Z,11.43
2019-03-09T14:09:41.126Z,9.07
2019-03-09T14:12:11.720Z,13.37
2019-03-09T14:14:42.272Z,11.80
2019-03-09T14:17:12.918Z,7.90
2019-03-09T14:19:43.297Z,14.67
2019-03-09T14:22:13.967Z,11.13
2019-03-09T14:24:44.473Z,10.73
2019-03-09T14:27:15.275Z,11.73
2019-03-09T14:29:45.886Z,13.40
2019-03-09T14:32:16.193Z,8.77
2019-03-09T14:34:46.746Z,12.03
2019-03-09T14:37:17.293Z,16.03
2019-03-09T14:39:47.877Z,18.67
2019-03-09T14:42:18.252Z,12.63
2019-03-09T14:44:48.817Z,13.07
2019-03-09T14:47:19.177Z,12.20
2019-03-09T14:49:49.625Z,12.10
2019-03-09T14:52:20.113Z,14.87
2019-03-09T14:54:50.664Z,16.53
2019-03-09T14:57:20.969Z,17.33
2019-03-09T14:59:51.205Z,19.40
2019-03-09T15:02:21.765Z,14.80
2019-03-09T15:04:52.718Z,14.93
2019-03-09T15:07:23.082Z,18.10
2019-03-09T15:09:53.743Z,15.90
2019-03-09T15:12:24.034Z,18.90
2019-03-09T15:14:54.413Z,15.60
2019-03-09T15:17:24.701Z,18.70
2019-03-09T15:19:55.317Z,18.90
2019-03-09T15:22:25.889Z,15.33
2019-03-09T15:24:56.334Z,21.17
2019-03-09T15:27:26.753Z,16.63
2019-03-09T15:29:57.135Z,18.83
2019-03-09T15:32:27.767Z,15.37
2019-03-09T15:35:00.484Z,19.33
2019-03-09T15:37:30.461Z,14.20
2019-03-09T15:40:00.849Z,21.47
2019-03-09T15:42:31.183Z,20.47
2019-03-09T15:45:01.922Z,22.93
2019-03-09T15:47:32.586Z,25.97
2019-03-09T15:50:03.221Z,21.20
2019-03-09T15:52:33.797Z,21.13
2019-03-09T15:55:05.200Z,17.83
2019-03-09T15:57:35.575Z,25.17
2019-03-09T16:00:22.887Z,25.13
2019-03-09T16:02:53.593Z,20.57
2019-03-09T16:05:24.174Z,25.33
2019-03-09T16:07:54.750Z,25.00
2019-03-09T16:10:25.121Z,23.93
2019-03-09T16:12:55.592Z,31.43
2019-03-09T16:15:26.269Z,24.43
2019-03-09T16:17:56.945Z,26.57
2019-03-09T16:20:28.986Z,31.67
2019-03-09T16:22:59.547Z,31.03
2019-03-09T16:25:30.109Z,27.83
2019-03-09T16:28:00.700Z,30.60
2019-03-09T16:30:31.153Z,40.03
2019-03-09T16:33:01.969Z,25.00
2019-03-09T16:35:32.727Z,28.17
2019-03-09T16:38:03.209Z,23.57
2019-03-09T16:40:40.430Z,32.73
2019-03-09T16:43:05.994Z,18.70
2019-03-09T16:45:36.665Z,20.80
2019-03-09T16:48:07.186Z,18.30
2019-03-09T16:50:37.472Z,17.23
2019-03-09T16:53:08.045Z,18.37
2019-03-09T16:55:38.553Z,17.83
2019-03-09T16:58:08.984Z,17.83
2019-03-09T17:00:39.514Z,21.87
2019-03-09T17:03:09.950Z,21.13
2019-03-09T17:05:40.416Z,11.47
2019-03-09T17:08:10.721Z,12.33
2019-03-09T17:10:41.089Z,16.47
2019-03-09T17:13:11.453Z,13.70
2019-03-09T17:15:41.736Z,14.00
2019-03-09T17:18:11.945Z,12.47
2019-03-09T17:20:42.592Z,12.80
2019-03-09T17:23:12.869Z,10.70
2019-03-09T17:25:43.093Z,14.83
2019-03-09T17:28:13.570Z,9.03
2019-03-09T17:30:44.045Z,12.83
2019-03-09T17:33:14.549Z,11.63
2019-03-09T17:35:44.946Z,10.10
2019-03-09T17:38:15.283Z,13.27
2019-03-09T17:40:45.629Z,9.07
2019-03-09T17:43:16.029Z,8.57
2019-03-09T17:45:46.257Z,9.43
2019-03-09T17:48:16.473Z,7.80
2019-03-09T17:50:46.827Z,7.63
2019-03-09T17:53:17.061Z,6.73
2019-03-09T17:55:47.585Z,9.63
2019-03-09T17:58:18.130Z,7.10
2019-03-09T18:00:48.634Z,5.60
2019-03-09T18:03:18.977Z,6.83
2019-03-09T18:05:49.566Z,7.73
2019-03-09T18:08:20.232Z,7.20
2019-03-09T18:10:53.589Z,5.47
2019-03-09T18:13:24.150Z,8.23
2019-03-09T18:15:54.445Z,6.37
2019-03-09T18:18:24.907Z,5.93
2019-03-09T18:20:55.131Z,6.50
2019-03-09T18:23:25.481Z,6.13
2019-03-09T18:25:55.869Z,4.67
2019-03-09T18:28:26.365Z,4.70
2019-03-09T18:30:56.581Z,6.00
2019-03-09T18:33:27.005Z,4.90
2019-03-09T18:35:57.313Z,5.87
2019-03-09T18:38:27.785Z,6.10
2019-03-09T18:40:57.979Z,6.87
2019-03-09T18:43:28.496Z,7.43
2019-03-09T18:45:58.712Z,7.87
2019-03-09T18:48:29.167Z,7.20
2019-03-09T18:50:59.522Z,8.43
2019-03-09T18:53:29.978Z,6.90
2019-03-09T18:56:00.405Z,5.70
2019-03-09T18:58:30.897Z,4.20
2019-03-09T19:01:01.561Z,5.00
2019-03-09T19:03:32.009Z,4.73
2019-03-09T19:06:02.335Z,4.40
2019-03-09T19:08:32.889Z,6.07
2019-03-09T19:11:03.375Z,5.47
2019-03-09T19:13:33.585Z,3.90
2019-03-09T19:16:04.016Z,5.63
2019-03-09T19:18:34.565Z,6.23
2019-03-09T19:21:05.121Z,4.90
2019-03-09T19:23:35.753Z,4.97
2019-03-09T19:26:06.101Z,5.10
2019-03-09T19:28:36.389Z,5.67
2019-03-09T19:31:06.677Z,7.70
2019-03-09T19:33:37.026Z,4.87
2019-03-09T19:36:07.509Z,4.17
2019-03-09T19:38:37.992Z,5.47
2019-03-09T19:41:08.545Z,4.73
2019-03-09T19:43:38.925Z,4.73
2019-03-09T19:46:09.152Z,3.17
2019-03-09T19:48:39.427Z,5.47
2019-03-09T19:51:10.290Z,7.03
2019-03-09T19:53:40.610Z,4.97
2019-03-09T19:56:11.268Z,3.60
2019-03-09T19:58:41.623Z,4.70
2019-03-09T20:01:11.986Z,4.17
2019-03-09T20:03:42.384Z,3.47
2019-03-09T20:06:12.745Z,5.30
2019-03-09T20:08:43.342Z,3.80
2019-03-09T20:11:13.725Z,5.30
2019-03-09T20:13:44.077Z,4.90
2019-03-09T20:16:14.366Z,3.63
2019-03-09T20:18:44.649Z,5.53
2019-03-09T20:21:15.001Z,4.63
2019-03-09T20:23:45.402Z,4.67
2019-03-09T20:26:15.704Z,4.90
2019-03-09T20:28:45.915Z,3.50
2019-03-09T20:31:16.233Z,5.20
2019-03-09T20:34:05.857Z,4.30
2019-03-09T20:36:36.061Z,5.23
2019-03-09T20:39:06.722Z,4.53
2019-03-09T20:41:37.108Z,5.47
2019-03-09T20:44:07.332Z,4.07
2019-03-09T20:46:41.941Z,5.30
2019-03-09T20:49:09.867Z,4.90
2019-03-09T20:51:40.135Z,4.90
2019-03-09T20:54:10.361Z,6.20
2019-03-09T20:56:40.721Z,5.43
2019-03-09T20:59:11.249Z,7.53
2019-03-09T21:01:41.730Z,5.80
2019-03-09T21:04:12.293Z,6.50
2019-03-09T21:06:42.732Z,9.67
2019-03-09T21:09:13.597Z,11.60
2019-03-09T21:11:44.201Z,7.83
2019-03-09T21:14:14.618Z,8.73
2019-03-09T21:17:04.325Z,7.30
2019-03-09T21:19:34.621Z,9.47
2019-03-09T21:22:04.882Z,9.30
2019-03-09T21:24:35.133Z,6.93
2019-03-09T21:27:05.750Z,7.90
2019-03-09T21:29:36.381Z,5.80
2019-03-09T21:32:06.956Z,4.73
2019-03-09T21:34:37.437Z,3.80
2019-03-09T21:37:07.846Z,3.33
2019-03-09T21:39:38.307Z,3.47
2019-03-09T21:42:08.656Z,2.70
2019-03-09T21:44:39.053Z,2.20
2019-03-09T21:47:09.415Z,2.60
2019-03-09T21:49:39.648Z,2.33
2019-03-09T21:52:10.268Z,3.67
2019-03-09T21:54:40.630Z,1.73
2019-03-09T21:57:10.978Z,2.33
2019-03-09T21:59:41.245Z,1.97
2019-03-09T22:02:11.457Z,1.50
2019-03-09T22:04:41.805Z,1.20
2019-03-09T22:07:12.226Z,1.17
2019-03-09T22:09:42.490Z,1.73
2019-03-09T22:12:12.701Z,2.43
2019-03-09T22:14:42.942Z,1.40
2019-03-09T22:17:13.401Z,1.17
2019-03-09T22:19:43.542Z,2.17
2019-03-09T22:22:13.929Z,2.23
2019-03-09T22:24:44.134Z,2.30
2019-03-09T22:27:14.352Z,2.20
2019-03-09T22:29:44.562Z,0.90
2019-03-09T22:32:14.852Z,1.57
2019-03-09T22:34:45.405Z,1.03
2019-03-09T22:37:15.968Z,0.40
2019-03-09T22:39:46.741Z,0.60
2019-03-09T22:42:17.151Z,0.73
2019-03-09T22:44:47.429Z,1.50
2019-03-09T22:47:17.850Z,0.60
2019-03-09T22:49:48.142Z,3.07
2019-03-09T22:52:18.632Z,1.27
2019-03-09T22:54:48.920Z,0.60
2019-03-09T22:57:19.057Z,0.97
2019-03-09T22:59:49.314Z,0.53
2019-03-09T23:02:19.746Z,1.70
2019-03-09T23:04:50.043Z,2.20
2019-03-09T23:07:20.269Z,1.37
2019-03-09T23:09:50.829Z,0.90
2019-03-09T23:12:21.189Z,1.60
2019-03-09T23:14:51.733Z,1.80
2019-03-09T23:17:22.017Z,0.30
2019-03-09T23:19:52.364Z,0.83
2019-03-09T23:22:22.922Z,0.70
2019-03-09T23:24:53.284Z,1.37
2019-03-09T23:27:23.879Z,1.27
2019-03-09T23:29:54.137Z,2.00
2019-03-09T23:32:24.698Z,1.40
2019-03-09T23:34:55.075Z,1.30
2019-03-09T23:37:25.413Z,0.83
2019-03-09T23:39:55.779Z,0.40
2019-03-09T23:42:26.121Z,0.50
2019-03-09T23:44:56.476Z,2.37
2019-03-09T23:47:26.756Z,2.33
2019-03-09T23:49:57.076Z,0.30
2019-03-09T23:52:27.703Z,0.73
2019-03-09T23:54:58.133Z,1.47
2019-03-09T23:57:28.499Z,0.50
2019-03-09T23:59:59.129Z,0.50
